Time;durP1;ratioP1;P1;durP2;ratioP2;P2;SDS_P1;SDS_P2;PMS_P1;PMS_P2;Temp;Humidity;BMP_temperature;BMP_pressure;BME280_temperature;BME280_humidity;BME280_pressure;Samples;Min_cycle;Max_cycle;Signal;HPM_P1;HPM_P2
2021/01/31 00:01:52;;;;;;;;;;;29.40;34.60;;;;;;5092718;28;19931;-71
2021/01/31 00:04:18;;;;;;;;;;;29.40;34.60;;;;;;5077012;28;20389;-62
2021/01/31 00:06:43;;;;;;;;;;;29.40;34.40;;;;;;5095119;28;19937;-62
2021/01/31 00:09:10;;;;;;;;;;;29.40;34.40;;;;;;5091581;28;19927;-59
2021/01/31 00:11:35;;;;;;;;;;;29.40;35.00;;;;;;5095322;28;19912;-67
2021/01/31 00:14:01;;;;;;;;;;;29.40;34.60;;;;;;5082583;28;20377;-64
2021/01/31 00:16:26;;;;;;;;;;;29.30;34.50;;;;;;5079505;28;19912;-64
2021/01/31 00:18:52;;;;;;;;;;;29.30;35.30;;;;;;5081960;28;20255;-70
2021/01/31 00:21:17;;;;;;;;;;;29.20;35.40;;;;;;5082835;28;19912;-78
2021/01/31 00:23:43;;;;;;;;;;;29.20;35.40;;;;;;5095612;28;20370;-67
2021/01/31 00:26:08;;;;;;;;;;;29.20;35.80;;;;;;5094744;28;19909;-62
2021/01/31 00:28:33;;;;;;;;;;;29.20;35.50;;;;;;5078025;28;20353;-64
2021/01/31 00:30:59;;;;;;;;;;;29.20;35.80;;;;;;5074317;28;19929;-64
2021/01/31 00:33:25;;;;;;;;;;;29.10;35.90;;;;;;5075669;28;19916;-58
2021/01/31 00:35:51;;;;;;;;;;;29.10;36.40;;;;;;5090594;28;19959;-62
2021/01/31 00:38:17;;;;;;;;;;;29.10;36.50;;;;;;5094549;28;19950;-62
2021/01/31 00:40:42;;;;;;;;;;;29.10;36.00;;;;;;5091226;28;19920;-62
2021/01/31 00:43:08;;;;;;;;;;;29.20;35.60;;;;;;5074335;28;19954;-65
2021/01/31 00:45:33;;;;;;;;;;;29.20;35.60;;;;;;5074345;28;19909;-59
2021/01/31 00:47:59;;;;;;;;;;;29.30;36.00;;;;;;5085882;28;20369;-59
2021/01/31 00:50:25;;;;;;;;;;;29.30;35.80;;;;;;5093612;28;19916;-59
2021/01/31 00:52:51;;;;;;;;;;;29.30;35.50;;;;;;5094170;28;19912;-58
2021/01/31 00:55:16;;;;;;;;;;;29.30;35.10;;;;;;5091256;28;19912;-68
2021/01/31 00:57:42;;;;;;;;;;;29.30;35.50;;;;;;5085262;28;20385;-61
2021/01/31 01:00:18;;;;;;;;;;;29.30;35.80;;;;;;5073839;28;19958;-71
2021/01/31 01:02:44;;;;;;;;;;;29.30;35.80;;;;;;5083251;28;19908;-61
2021/01/31 01:05:09;;;;;;;;;;;29.40;35.80;;;;;;5092318;28;19923;-58
2021/01/31 01:07:35;;;;;;;;;;;29.30;36.20;;;;;;5074060;28;19998;-58
2021/01/31 01:10:00;;;;;;;;;;;29.30;36.00;;;;;;5073898;28;20389;-64
2021/01/31 01:12:26;;;;;;;;;;;29.30;36.40;;;;;;5089440;28;19908;-51
2021/01/31 01:14:51;;;;;;;;;;;29.30;36.90;;;;;;5073697;28;19912;-63
2021/01/31 01:17:17;;;;;;;;;;;29.40;37.00;;;;;;5079341;28;19908;-70
2021/01/31 01:19:42;;;;;;;;;;;29.40;36.90;;;;;;5075080;28;19920;-63
2021/01/31 01:22:07;;;;;;;;;;;29.50;36.90;;;;;;5073316;28;19912;-71
2021/01/31 01:24:33;;;;;;;;;;;29.50;36.90;;;;;;5073160;28;19948;-70
2021/01/31 01:26:58;;;;;;;;;;;29.50;37.00;;;;;;5076307;28;19998;-64
2021/01/31 01:29:24;;;;;;;;;;;29.60;37.10;;;;;;5093273;28;19931;-72
2021/01/31 01:31:49;;;;;;;;;;;29.60;37.10;;;;;;5076239;28;19940;-68
2021/01/31 01:34:15;;;;;;;;;;;29.50;36.90;;;;;;5073174;28;19935;-64
2021/01/31 01:36:40;;;;;;;;;;;29.60;37.10;;;;;;5073740;28;19972;-60
2021/01/31 01:39:06;;;;;;;;;;;29.50;37.50;;;;;;5072952;28;19926;-59
2021/01/31 01:41:35;;;;;;;;;;;29.50;37.30;;;;;;5072931;28;19961;-59
2021/01/31 01:44:00;;;;;;;;;;;29.50;37.30;;;;;;5079463;28;19942;-65
2021/01/31 01:46:27;;;;;;;;;;;29.50;37.10;;;;;;5074445;28;19913;-63
2021/01/31 01:49:13;;;;;;;;;;;29.50;37.00;;;;;;5056480;28;20472;-50
2021/01/31 01:51:40;;;;;;;;;;;29.50;37.10;;;;;;5080663;28;19912;-48
2021/01/31 01:54:06;;;;;;;;;;;29.50;36.80;;;;;;5071899;28;20386;-51
2021/01/31 01:56:33;;;;;;;;;;;29.50;36.90;;;;;;5072842;28;20392;-63
2021/01/31 01:58:59;;;;;;;;;;;29.50;36.70;;;;;;5074149;28;20290;-63
2021/01/31 02:01:24;;;;;;;;;;;29.50;37.00;;;;;;5075152;28;19912;-61
2021/01/31 02:03:52;;;;;;;;;;;29.50;36.90;;;;;;5092942;28;20413;-55
2021/01/31 02:06:25;;;;;;;;;;;29.50;36.70;;;;;;5088167;28;20363;-60
2021/01/31 02:08:50;;;;;;;;;;;29.40;36.70;;;;;;5073406;28;19917;-67
2021/01/31 02:11:16;;;;;;;;;;;29.40;37.20;;;;;;5089020;28;19999;-67
2021/01/31 02:13:42;;;;;;;;;;;29.40;36.80;;;;;;5092994;28;20046;-62
2021/01/31 02:16:10;;;;;;;;;;;29.40;37.10;;;;;;5092490;28;19909;-63
2021/01/31 02:18:40;;;;;;;;;;;29.30;37.00;;;;;;5072435;28;20242;-62
2021/01/31 02:21:05;;;;;;;;;;;29.40;37.00;;;;;;5065491;28;19920;-51
2021/01/31 02:23:48;;;;;;;;;;;29.40;36.70;;;;;;5093036;28;19915;-61
2021/01/31 02:26:22;;;;;;;;;;;29.40;36.80;;;;;;5054916;28;19954;-59
2021/01/31 02:28:59;;;;;;;;;;;29.40;36.80;;;;;;5090981;28;19912;-60
2021/01/31 02:31:24;;;;;;;;;;;29.40;36.90;;;;;;5074268;28;19962;-60
2021/01/31 02:33:59;;;;;;;;;;;29.40;37.00;;;;;;5084564;28;19951;-59
2021/01/31 02:36:30;;;;;;;;;;;29.40;36.70;;;;;;5092681;28;19920;-61
2021/01/31 02:39:15;;;;;;;;;;;29.40;36.70;;;;;;5078225;28;20362;-46
2021/01/31 02:41:43;;;;;;;;;;;29.40;36.80;;;;;;5058320;28;19920;-44
2021/01/31 02:44:09;;;;;;;;;;;29.40;36.40;;;;;;5072674;28;19908;-45
2021/01/31 02:47:07;;;;;;;;;;;29.40;36.50;;;;;;5072795;28;19967;-45
2021/01/31 02:49:33;;;;;;;;;;;29.40;36.60;;;;;;5027532;28;19952;-45
2021/01/31 02:52:16;;;;;;;;;;;29.30;36.40;;;;;;5074120;28;19970;-47
2021/01/31 02:54:58;;;;;;;;;;;29.40;36.30;;;;;;5074349;28;19912;-46
2021/01/31 02:57:24;;;;;;;;;;;29.30;36.30;;;;;;5061187;28;19966;-49
2021/01/31 02:59:58;;;;;;;;;;;29.30;37.30;;;;;;5092653;28;19981;-51
2021/01/31 03:02:28;;;;;;;;;;;29.30;36.80;;;;;;5072685;28;19916;-54
2021/01/31 03:05:02;;;;;;;;;;;29.30;36.70;;;;;;5074852;28;19916;-48
2021/01/31 03:07:31;;;;;;;;;;;29.30;36.70;;;;;;5090728;28;19999;-50
2021/01/31 03:09:58;;;;;;;;;;;29.30;36.70;;;;;;5063821;28;19916;-50
2021/01/31 03:12:27;;;;;;;;;;;29.30;36.40;;;;;;5054380;28;19909;-48
2021/01/31 03:14:55;;;;;;;;;;;29.30;36.50;;;;;;5054272;28;19916;-50
2021/01/31 03:17:42;;;;;;;;;;;29.30;36.60;;;;;;5057958;28;19908;-53
2021/01/31 03:20:08;;;;;;;;;;;29.30;36.50;;;;;;5077335;28;19919;-50
2021/01/31 03:22:54;;;;;;;;;;;29.30;36.40;;;;;;5084228;28;19916;-49
2021/01/31 03:25:22;;;;;;;;;;;29.30;36.30;;;;;;5078283;28;19911;-49
2021/01/31 03:27:47;;;;;;;;;;;29.30;36.40;;;;;;5067944;28;19931;-54
2021/01/31 03:30:13;;;;;;;;;;;29.30;36.50;;;;;;5057859;28;20398;-50
2021/01/31 03:32:40;;;;;;;;;;;29.30;36.50;;;;;;5078871;28;20271;-56
2021/01/31 03:35:07;;;;;;;;;;;29.30;36.40;;;;;;5078094;28;19969;-53
2021/01/31 03:37:37;;;;;;;;;;;29.30;36.60;;;;;;5061373;28;19912;-55
2021/01/31 03:40:03;;;;;;;;;;;29.30;36.60;;;;;;5062725;28;19920;-57
2021/01/31 03:42:29;;;;;;;;;;;29.30;36.50;;;;;;5077638;28;19958;-60
2021/01/31 03:44:54;;;;;;;;;;;29.30;36.40;;;;;;5095763;28;19915;-62
2021/01/31 03:47:23;;;;;;;;;;;29.30;36.30;;;;;;5066909;28;19916;-62
2021/01/31 03:49:49;;;;;;;;;;;29.30;36.50;;;;;;5076179;28;19999;-55
2021/01/31 03:52:15;;;;;;;;;;;29.30;36.50;;;;;;5060385;28;19952;-54
2021/01/31 03:54:40;;;;;;;;;;;29.30;36.50;;;;;;5075205;28;19943;-55
2021/01/31 03:57:15;;;;;;;;;;;29.30;36.40;;;;;;5057677;28;20019;-61
2021/01/31 03:59:42;;;;;;;;;;;29.30;36.50;;;;;;5075411;28;19921;-60
2021/01/31 04:02:07;;;;;;;;;;;29.30;36.60;;;;;;5067549;28;19908;-65
2021/01/31 04:04:33;;;;;;;;;;;29.30;36.60;;;;;;5076464;28;20427;-59
2021/01/31 04:06:58;;;;;;;;;;;29.20;36.20;;;;;;5078450;28;19916;-58
2021/01/31 04:09:24;;;;;;;;;;;29.20;36.20;;;;;;5077447;28;20293;-60
2021/01/31 04:11:51;;;;;;;;;;;29.20;36.40;;;;;;5083382;28;19928;-60
2021/01/31 04:14:16;;;;;;;;;;;29.20;36.40;;;;;;5056905;28;19958;-60
2021/01/31 04:16:43;;;;;;;;;;;29.20;36.30;;;;;;5086017;28;19908;-63
2021/01/31 04:19:09;;;;;;;;;;;29.30;36.40;;;;;;5076719;28;19916;-62
2021/01/31 04:21:35;;;;;;;;;;;29.20;36.20;;;;;;5089208;28;19920;-72
2021/01/31 04:24:00;;;;;;;;;;;29.20;36.10;;;;;;5095212;28;20381;-60
2021/01/31 04:26:26;;;;;;;;;;;29.30;36.10;;;;;;5094878;28;19973;-62
2021/01/31 04:28:51;;;;;;;;;;;29.30;35.90;;;;;;5085621;28;19919;-60
2021/01/31 04:31:16;;;;;;;;;;;29.30;36.00;;;;;;5086597;28;19969;-58
2021/01/31 04:33:42;;;;;;;;;;;29.30;35.90;;;;;;5094778;28;19974;-51
2021/01/31 04:36:07;;;;;;;;;;;29.30;35.80;;;;;;5094982;28;20407;-53
2021/01/31 04:38:33;;;;;;;;;;;29.30;35.80;;;;;;5077727;28;19917;-62
2021/01/31 04:40:58;;;;;;;;;;;29.30;35.80;;;;;;5074646;28;20016;-52
2021/01/31 04:43:24;;;;;;;;;;;29.30;35.80;;;;;;5078495;28;20358;-45
2021/01/31 04:45:49;;;;;;;;;;;29.40;35.90;;;;;;5078880;28;19940;-43
2021/01/31 04:48:24;;;;;;;;;;;29.30;35.70;;;;;;5087338;28;19923;-48
2021/01/31 04:51:01;;;;;;;;;;;29.30;35.70;;;;;;5085443;28;20286;-50
2021/01/31 04:53:42;;;;;;;;;;;29.30;35.50;;;;;;5094677;28;19908;-48
2021/01/31 04:56:22;;;;;;;;;;;29.30;35.60;;;;;;5083410;28;19912;-49
2021/01/31 04:58:49;;;;;;;;;;;29.30;35.60;;;;;;5094530;28;20003;-52
2021/01/31 05:01:16;;;;;;;;;;;29.30;35.60;;;;;;5094544;28;19919;-46
2021/01/31 05:03:48;;;;;;;;;;;29.30;35.60;;;;;;5074744;28;19921;-46
2021/01/31 05:06:14;;;;;;;;;;;29.30;35.50;;;;;;5094142;28;20370;-47
2021/01/31 05:08:40;;;;;;;;;;;29.30;35.40;;;;;;5058396;28;19920;-51
2021/01/31 05:11:27;;;;;;;;;;;29.40;35.50;;;;;;5063607;28;19965;-55
2021/01/31 05:14:07;;;;;;;;;;;29.30;35.40;;;;;;5064932;28;19920;-58
2021/01/31 05:16:32;;;;;;;;;;;29.30;35.30;;;;;;5065441;28;19972;-55
2021/01/31 05:18:59;;;;;;;;;;;29.30;35.20;;;;;;5073960;28;20045;-45
2021/01/31 05:21:26;;;;;;;;;;;29.40;35.30;;;;;;5069401;28;19916;-52
2021/01/31 05:23:55;;;;;;;;;;;29.40;35.30;;;;;;5057602;28;20434;-57
2021/01/31 05:26:21;;;;;;;;;;;29.40;35.30;;;;;;5094046;28;19919;-55
2021/01/31 05:28:47;;;;;;;;;;;29.40;35.20;;;;;;5075647;28;19908;-46
2021/01/31 05:31:13;;;;;;;;;;;29.40;35.30;;;;;;5075563;28;19920;-50
2021/01/31 05:33:52;;;;;;;;;;;29.40;35.20;;;;;;5058303;28;19962;-52
2021/01/31 05:36:18;;;;;;;;;;;29.40;35.30;;;;;;5077663;28;19912;-47
2021/01/31 05:38:44;;;;;;;;;;;29.40;35.20;;;;;;5075620;28;19952;-51
2021/01/31 05:41:21;;;;;;;;;;;29.40;35.20;;;;;;5072606;28;19920;-45
2021/01/31 05:43:54;;;;;;;;;;;29.40;35.20;;;;;;5091778;28;19912;-55
2021/01/31 05:46:19;;;;;;;;;;;29.40;35.20;;;;;;5057813;28;20007;-56
2021/01/31 05:48:45;;;;;;;;;;;29.40;35.10;;;;;;5078372;28;20011;-60
2021/01/31 05:51:14;;;;;;;;;;;29.40;35.30;;;;;;5084748;28;19916;-60
2021/01/31 05:53:39;;;;;;;;;;;29.30;35.20;;;;;;5081806;28;19916;-64
2021/01/31 05:56:11;;;;;;;;;;;29.30;35.20;;;;;;5089248;28;19909;-67
2021/01/31 05:58:37;;;;;;;;;;;29.30;35.20;;;;;;5076705;28;20294;-67
2021/01/31 06:01:03;;;;;;;;;;;29.30;35.20;;;;;;5080839;28;19920;-54
2021/01/31 06:03:29;;;;;;;;;;;29.30;35.30;;;;;;5081586;28;19908;-64
2021/01/31 06:06:06;;;;;;;;;;;29.20;35.20;;;;;;5092816;28;19916;-65
2021/01/31 06:08:33;;;;;;;;;;;29.20;35.20;;;;;;5093258;28;19994;-64
2021/01/31 06:11:05;;;;;;;;;;;29.20;35.20;;;;;;5075559;28;19931;-64
2021/01/31 06:13:31;;;;;;;;;;;29.20;35.10;;;;;;5075321;28;19912;-65
2021/01/31 06:15:57;;;;;;;;;;;29.20;35.00;;;;;;5093415;28;19913;-64
2021/01/31 06:18:27;;;;;;;;;;;29.20;34.90;;;;;;5074964;28;19935;-64
2021/01/31 06:20:53;;;;;;;;;;;29.20;34.90;;;;;;5074857;28;19920;-64
2021/01/31 06:23:19;;;;;;;;;;;29.20;34.90;;;;;;5074931;28;20457;-64
2021/01/31 06:25:44;;;;;;;;;;;29.20;34.80;;;;;;5093229;28;19908;-65
2021/01/31 06:28:10;;;;;;;;;;;29.20;34.80;;;;;;5093040;28;20362;-64
2021/01/31 06:30:40;;;;;;;;;;;29.20;34.80;;;;;;5087045;28;19970;-65
2021/01/31 06:33:06;;;;;;;;;;;29.20;34.70;;;;;;5074735;28;19908;-64
2021/01/31 06:35:31;;;;;;;;;;;29.20;34.70;;;;;;5092873;28;19912;-65
2021/01/31 06:38:03;;;;;;;;;;;29.20;34.70;;;;;;5092986;28;19922;-64
2021/01/31 06:40:51;;;;;;;;;;;29.20;34.70;;;;;;5083964;28;19920;-64
2021/01/31 06:43:22;;;;;;;;;;;29.10;34.60;;;;;;5034674;28;19962;-64
2021/01/31 06:46:00;;;;;;;;;;;29.20;34.60;;;;;;5054932;28;19935;-64
2021/01/31 06:48:43;;;;;;;;;;;29.20;34.60;;;;;;5072854;28;19908;-64
2021/01/31 06:51:18;;;;;;;;;;;29.20;34.60;;;;;;5081417;28;20366;-64
2021/01/31 06:53:43;;;;;;;;;;;;;;;;;;5073566;28;19914;-64
2021/01/31 06:56:09;;;;;;;;;;;29.10;34.00;;;;;;5076481;28;19912;-64
2021/01/31 06:58:43;;;;;;;;;;;29.10;34.50;;;;;;5076368;28;19912;-64
2021/01/31 07:01:14;;;;;;;;;;;29.10;34.50;;;;;;5076275;28;19922;-64
2021/01/31 07:03:46;;;;;;;;;;;29.10;34.50;;;;;;5058536;28;19944;-64
2021/01/31 07:06:27;;;;;;;;;;;29.10;34.50;;;;;;5078791;28;19958;-64
2021/01/31 07:08:55;;;;;;;;;;;29.10;34.50;;;;;;5058487;28;19913;-64
2021/01/31 07:11:26;;;;;;;;;;;29.10;34.50;;;;;;5076488;28;19919;-64
2021/01/31 07:13:53;;;;;;;;;;;29.10;34.50;;;;;;5059671;28;19912;-64
2021/01/31 07:16:19;;;;;;;;;;;29.10;34.50;;;;;;5058609;28;19915;-64
2021/01/31 07:18:47;;;;;;;;;;;29.10;34.40;;;;;;5076106;28;19908;-64
2021/01/31 07:21:15;;;;;;;;;;;29.00;34.40;;;;;;5075900;28;19926;-64
2021/01/31 07:23:41;;;;;;;;;;;29.10;34.40;;;;;;5076253;28;20066;-64
2021/01/31 07:26:19;;;;;;;;;;;29.10;34.40;;;;;;5058342;28;20003;-64
2021/01/31 07:28:45;;;;;;;;;;;29.00;34.30;;;;;;5068542;28;19912;-64
2021/01/31 07:31:11;;;;;;;;;;;29.00;34.30;;;;;;5081323;28;19924;-64
2021/01/31 07:33:41;;;;;;;;;;;29.00;34.40;;;;;;5075922;28;19951;-64
2021/01/31 07:36:08;;;;;;;;;;;29.00;34.40;;;;;;5091331;28;20311;-64
2021/01/31 07:38:40;;;;;;;;;;;29.00;34.40;;;;;;5077935;28;20000;-64
2021/01/31 07:41:06;;;;;;;;;;;29.00;34.40;;;;;;5096253;28;19922;-64
2021/01/31 07:43:33;;;;;;;;;;;29.00;34.30;;;;;;5077938;28;19908;-64
2021/01/31 07:46:02;;;;;;;;;;;29.00;34.30;;;;;;5077682;28;20396;-64
2021/01/31 07:48:33;;;;;;;;;;;28.90;34.30;;;;;;5085981;28;19919;-64
2021/01/31 07:50:59;;;;;;;;;;;28.90;34.30;;;;;;5075604;28;19912;-64
2021/01/31 07:53:25;;;;;;;;;;;29.00;34.30;;;;;;5057890;28;19999;-64
2021/01/31 07:55:51;;;;;;;;;;;29.00;34.30;;;;;;5058544;28;19923;-64
2021/01/31 07:58:25;;;;;;;;;;;29.00;34.30;;;;;;5063538;28;20271;-64
2021/01/31 08:00:54;;;;;;;;;;;29.00;34.30;;;;;;5095682;28;19959;-64
2021/01/31 08:03:29;;;;;;;;;;;28.90;34.20;;;;;;5077645;28;19957;-65
2021/01/31 08:06:21;;;;;;;;;;;29.00;34.30;;;;;;5094914;28;20388;-64
2021/01/31 08:08:50;;;;;;;;;;;29.00;34.30;;;;;;5043744;28;19920;-64
2021/01/31 08:11:18;;;;;;;;;;;28.90;34.20;;;;;;5075349;28;19931;-64
2021/01/31 08:13:45;;;;;;;;;;;29.00;34.30;;;;;;5082502;28;20301;-65
2021/01/31 08:16:29;;;;;;;;;;;29.00;34.20;;;;;;5095238;28;20370;-65
2021/01/31 08:19:02;;;;;;;;;;;29.00;34.20;;;;;;5095426;28;19943;-65
2021/01/31 08:21:46;;;;;;;;;;;28.90;34.10;;;;;;5095146;28;19963;-65
2021/01/31 08:24:11;;;;;;;;;;;28.90;34.20;;;;;;5095361;28;19955;-65
2021/01/31 08:26:38;;;;;;;;;;;28.90;34.20;;;;;;5084593;28;19963;-65
2021/01/31 08:29:03;;;;;;;;;;;28.90;34.10;;;;;;5074463;28;19909;-64
2021/01/31 08:31:29;;;;;;;;;;;28.90;34.10;;;;;;5074822;28;19936;-64
2021/01/31 08:33:58;;;;;;;;;;;28.90;34.10;;;;;;5074949;28;20380;-64
2021/01/31 08:36:24;;;;;;;;;;;28.90;34.00;;;;;;5074386;28;19909;-64
2021/01/31 08:38:52;;;;;;;;;;;28.90;34.00;;;;;;5074537;28;19913;-64
2021/01/31 08:41:24;;;;;;;;;;;29.00;34.10;;;;;;5083902;28;19927;-64
2021/01/31 08:43:50;;;;;;;;;;;28.90;34.00;;;;;;5094579;28;19918;-64
2021/01/31 08:46:22;;;;;;;;;;;29.00;34.10;;;;;;5094910;28;19914;-64
2021/01/31 08:48:51;;;;;;;;;;;28.90;34.00;;;;;;5094840;28;19915;-64
2021/01/31 08:51:23;;;;;;;;;;;28.90;34.00;;;;;;5088294;28;19912;-64
2021/01/31 08:54:01;;;;;;;;;;;28.90;34.00;;;;;;5074479;28;19917;-64
2021/01/31 08:56:46;;;;;;;;;;;28.90;34.00;;;;;;5074165;28;19915;-64
2021/01/31 08:59:27;;;;;;;;;;;28.90;34.00;;;;;;5076791;28;19921;-64
2021/01/31 09:02:02;;;;;;;;;;;28.90;34.00;;;;;;5076429;28;19919;-64
2021/01/31 09:04:27;;;;;;;;;;;28.90;34.00;;;;;;5094490;28;19916;-64
2021/01/31 09:06:53;;;;;;;;;;;28.90;34.00;;;;;;5076421;28;19908;-64
2021/01/31 09:09:39;;;;;;;;;;;28.90;34.00;;;;;;5094122;28;20274;-64
2021/01/31 09:12:08;;;;;;;;;;;28.90;33.90;;;;;;5093359;28;19995;-65
2021/01/31 09:14:34;;;;;;;;;;;28.90;33.90;;;;;;5092632;28;19916;-65
2021/01/31 09:17:05;;;;;;;;;;;28.90;34.00;;;;;;5093102;28;20499;-64
2021/01/31 09:19:31;;;;;;;;;;;28.90;33.90;;;;;;5086355;28;19951;-65
2021/01/31 09:22:01;;;;;;;;;;;28.90;33.90;;;;;;5073600;28;19908;-65
2021/01/31 09:24:26;;;;;;;;;;;28.90;33.90;;;;;;5055889;28;20382;-64
2021/01/31 09:26:53;;;;;;;;;;;28.90;33.90;;;;;;5056049;28;19944;-65
2021/01/31 09:29:19;;;;;;;;;;;28.90;33.90;;;;;;5073587;28;19956;-64
2021/01/31 09:31:44;;;;;;;;;;;28.90;33.80;;;;;;5073462;28;19909;-65
2021/01/31 09:34:10;;;;;;;;;;;28.90;33.80;;;;;;5061855;28;19935;-64
2021/01/31 09:36:36;;;;;;;;;;;28.90;33.80;;;;;;5093922;28;20416;-64
2021/01/31 09:39:04;;;;;;;;;;;28.90;33.80;;;;;;5093464;28;19962;-65
2021/01/31 09:41:29;;;;;;;;;;;28.90;33.80;;;;;;5075749;28;19908;-65
2021/01/31 09:43:56;;;;;;;;;;;28.90;33.80;;;;;;5075457;28;19912;-65
2021/01/31 09:46:23;;;;;;;;;;;28.90;33.80;;;;;;5075341;28;19923;-65
2021/01/31 09:49:01;;;;;;;;;;;28.90;33.80;;;;;;5070177;28;19912;-64
2021/01/31 09:51:26;;;;;;;;;;;28.90;33.80;;;;;;5055589;28;19988;-64
2021/01/31 09:53:52;;;;;;;;;;;28.90;33.80;;;;;;5055417;28;20275;-64
2021/01/31 09:56:41;;;;;;;;;;;28.90;33.80;;;;;;5073449;28;20294;-65
2021/01/31 09:59:16;;;;;;;;;;;28.90;33.80;;;;;;5064541;28;19912;-65
2021/01/31 10:01:41;;;;;;;;;;;28.90;33.80;;;;;;5072990;28;20003;-65
2021/01/31 10:04:07;;;;;;;;;;;28.90;33.80;;;;;;5074410;28;19958;-65
2021/01/31 10:06:42;;;;;;;;;;;28.90;33.80;;;;;;5073236;28;20275;-64
2021/01/31 10:09:08;;;;;;;;;;;28.90;33.80;;;;;;5061966;28;20069;-64
2021/01/31 10:11:38;;;;;;;;;;;28.80;33.80;;;;;;5093454;28;20384;-64
2021/01/31 10:14:04;;;;;;;;;;;28.90;33.80;;;;;;5093373;28;19953;-64
2021/01/31 10:16:30;;;;;;;;;;;28.90;33.80;;;;;;5093008;28;19908;-64
2021/01/31 10:19:09;;;;;;;;;;;28.90;33.70;;;;;;5093216;28;20275;-64
2021/01/31 10:21:35;;;;;;;;;;;28.90;33.70;;;;;;5093273;28;19916;-64
2021/01/31 10:24:03;;;;;;;;;;;28.90;33.80;;;;;;5066989;28;19922;-64
2021/01/31 10:26:29;;;;;;;;;;;28.80;33.80;;;;;;5072734;28;19916;-64
2021/01/31 10:28:55;;;;;;;;;;;28.90;33.80;;;;;;5054411;28;19908;-63
2021/01/31 10:31:23;;;;;;;;;;;28.90;33.80;;;;;;5072846;28;19943;-64
2021/01/31 10:33:51;;;;;;;;;;;28.90;33.80;;;;;;5072889;28;19916;-64
2021/01/31 10:36:25;;;;;;;;;;;28.90;33.70;;;;;;5074902;28;19920;-64
2021/01/31 10:38:58;;;;;;;;;;;28.90;33.70;;;;;;5072846;28;19920;-64
2021/01/31 10:41:23;;;;;;;;;;;28.90;33.70;;;;;;5072615;28;20362;-64
2021/01/31 10:43:55;;;;;;;;;;;28.80;33.70;;;;;;5072684;28;19915;-64
2021/01/31 10:46:21;;;;;;;;;;;28.90;33.80;;;;;;5072882;28;19967;-64
2021/01/31 10:48:46;;;;;;;;;;;28.90;33.70;;;;;;5073869;28;19959;-64
2021/01/31 10:51:12;;;;;;;;;;;28.90;33.70;;;;;;5092773;28;19912;-64
2021/01/31 10:53:37;;;;;;;;;;;28.90;33.70;;;;;;5074955;28;19951;-64
2021/01/31 10:56:03;;;;;;;;;;;28.90;33.70;;;;;;5092619;28;19908;-64
2021/01/31 10:58:28;;;;;;;;;;;28.90;33.70;;;;;;5092988;28;19952;-64
2021/01/31 11:00:53;;;;;;;;;;;28.90;33.70;;;;;;5088913;28;19920;-64
2021/01/31 11:03:19;;;;;;;;;;;28.90;33.70;;;;;;5074282;28;19999;-63
2021/01/31 11:05:45;;;;;;;;;;;28.90;33.70;;;;;;5072420;28;20754;-64
2021/01/31 11:08:10;;;;;;;;;;;28.90;33.70;;;;;;5072600;28;19927;-64
2021/01/31 11:10:36;;;;;;;;;;;28.90;33.70;;;;;;5072380;28;19909;-64
2021/01/31 11:13:01;;;;;;;;;;;28.90;33.70;;;;;;5073648;28;19913;-64
2021/01/31 11:15:27;;;;;;;;;;;28.80;33.70;;;;;;5072281;28;19959;-64
2021/01/31 11:17:52;;;;;;;;;;;28.80;33.70;;;;;;5085150;28;19916;-64
2021/01/31 11:20:18;;;;;;;;;;;28.90;33.70;;;;;;5092672;28;19999;-64
2021/01/31 11:22:43;;;;;;;;;;;28.80;33.70;;;;;;5092818;28;20374;-64
2021/01/31 11:25:09;;;;;;;;;;;28.90;33.70;;;;;;5092715;28;19908;-64
2021/01/31 11:27:34;;;;;;;;;;;28.80;33.60;;;;;;5092621;28;19908;-64
2021/01/31 11:30:00;;;;;;;;;;;28.90;33.70;;;;;;5092354;28;20443;-64
2021/01/31 11:32:25;;;;;;;;;;;28.90;33.70;;;;;;5072888;28;20047;-64
2021/01/31 11:34:51;;;;;;;;;;;28.80;33.60;;;;;;5072439;28;19962;-64
2021/01/31 11:37:16;;;;;;;;;;;28.80;33.70;;;;;;5071900;28;19908;-64
2021/01/31 11:39:42;;;;;;;;;;;28.90;33.70;;;;;;5073212;28;19919;-64
2021/01/31 11:42:07;;;;;;;;;;;28.80;33.60;;;;;;5075744;28;19926;-64
2021/01/31 11:44:33;;;;;;;;;;;28.80;33.60;;;;;;5075873;28;19913;-65
2021/01/31 11:46:58;;;;;;;;;;;28.80;33.70;;;;;;5093317;28;19920;-64
2021/01/31 11:49:24;;;;;;;;;;;28.80;33.60;;;;;;5096064;28;19944;-64
2021/01/31 11:51:49;;;;;;;;;;;28.80;33.60;;;;;;5095587;28;20003;-64
2021/01/31 11:54:15;;;;;;;;;;;28.80;33.60;;;;;;5095992;28;19915;-64
2021/01/31 11:56:40;;;;;;;;;;;28.80;33.70;;;;;;5095945;28;20331;-64
2021/01/31 11:59:06;;;;;;;;;;;28.80;33.60;;;;;;5095463;28;19908;-65
2021/01/31 12:01:31;;;;;;;;;;;28.90;33.60;;;;;;5095392;28;19998;-64
2021/01/31 12:03:56;;;;;;;;;;;28.80;33.60;;;;;;5083965;28;19912;-64
2021/01/31 12:06:22;;;;;;;;;;;28.80;33.50;;;;;;5075118;28;19917;-64
2021/01/31 12:08:47;;;;;;;;;;;28.80;33.50;;;;;;5075404;28;20299;-64
2021/01/31 12:11:13;;;;;;;;;;;28.80;33.50;;;;;;5075047;28;19999;-64
2021/01/31 12:13:38;;;;;;;;;;;28.80;33.50;;;;;;5075337;28;19939;-64
2021/01/31 12:16:04;;;;;;;;;;;28.80;33.60;;;;;;5075402;28;20339;-64
2021/01/31 12:18:29;;;;;;;;;;;28.90;33.60;;;;;;5083953;28;19915;-64
2021/01/31 12:20:55;;;;;;;;;;;28.80;33.50;;;;;;5095363;28;19978;-64
2021/01/31 12:23:20;;;;;;;;;;;28.80;33.60;;;;;;5095356;28;19912;-64
2021/01/31 12:25:46;;;;;;;;;;;28.80;33.60;;;;;;5094529;28;19930;-64
2021/01/31 12:28:12;;;;;;;;;;;28.80;33.50;;;;;;5075067;28;19912;-64
2021/01/31 12:30:38;;;;;;;;;;;28.80;34.20;;;;;;5074480;28;20381;-63
2021/01/31 12:33:05;;;;;;;;;;;28.90;33.60;;;;;;5074140;28;20299;-64
2021/01/31 12:35:31;;;;;;;;;;;28.80;33.50;;;;;;5074685;28;19917;-64
2021/01/31 12:37:56;;;;;;;;;;;28.80;33.50;;;;;;5074872;28;20331;-64
2021/01/31 12:40:22;;;;;;;;;;;28.80;33.50;;;;;;5074821;28;20434;-64
2021/01/31 12:42:48;;;;;;;;;;;28.80;33.50;;;;;;5093629;28;19908;-64
2021/01/31 12:45:16;;;;;;;;;;;28.80;33.50;;;;;;5095268;28;19912;-64
2021/01/31 12:47:42;;;;;;;;;;;28.80;33.50;;;;;;5094910;28;19909;-64
2021/01/31 12:50:08;;;;;;;;;;;28.80;33.50;;;;;;5094611;28;19961;-64
2021/01/31 12:52:36;;;;;;;;;;;28.80;33.50;;;;;;5094709;28;19908;-64
2021/01/31 12:55:02;;;;;;;;;;;28.80;33.50;;;;;;5094687;28;19916;-64
2021/01/31 12:57:27;;;;;;;;;;;28.80;33.50;;;;;;5075700;28;20286;-64
2021/01/31 12:59:54;;;;;;;;;;;28.80;33.50;;;;;;5074279;28;20332;-64
2021/01/31 13:02:20;;;;;;;;;;;28.80;33.50;;;;;;5073999;28;20290;-65
2021/01/31 13:04:45;;;;;;;;;;;28.80;33.50;;;;;;5074281;28;19930;-64
2021/01/31 13:07:11;;;;;;;;;;;28.80;33.50;;;;;;5074234;28;19963;-64
2021/01/31 13:09:36;;;;;;;;;;;28.90;33.50;;;;;;5075206;28;20381;-64
2021/01/31 13:12:02;;;;;;;;;;;28.90;33.50;;;;;;5073859;28;19913;-64
2021/01/31 13:14:27;;;;;;;;;;;28.90;33.50;;;;;;5074132;28;19991;-64
2021/01/31 13:16:53;;;;;;;;;;;28.80;33.50;;;;;;5083193;28;19968;-64
2021/01/31 13:19:18;;;;;;;;;;;28.80;33.50;;;;;;5093583;28;20374;-64
2021/01/31 13:21:44;;;;;;;;;;;28.80;33.50;;;;;;5077688;28;20363;-65
2021/01/31 13:24:09;;;;;;;;;;;28.80;33.50;;;;;;5088604;28;20009;-65
2021/01/31 13:26:35;;;;;;;;;;;28.80;33.50;;;;;;5094164;28;19923;-65
2021/01/31 13:29:00;;;;;;;;;;;28.80;33.60;;;;;;5087351;28;19920;-64
2021/01/31 13:31:26;;;;;;;;;;;28.80;33.50;;;;;;5093916;28;19939;-65
2021/01/31 13:33:53;;;;;;;;;;;28.80;33.50;;;;;;5092472;28;20362;-77
2021/01/31 13:36:19;;;;;;;;;;;28.80;33.70;;;;;;5073589;28;19930;-64
2021/01/31 13:38:44;;;;;;;;;;;28.70;33.90;;;;;;5089477;28;20397;-66
2021/01/31 13:41:10;;;;;;;;;;;28.80;34.00;;;;;;5093776;28;19981;-63
2021/01/31 13:43:35;;;;;;;;;;;28.90;34.50;;;;;;5093525;28;19918;-64
2021/01/31 13:46:00;;;;;;;;;;;29.00;33.70;;;;;;5093566;28;19931;-59
2021/01/31 13:48:26;;;;;;;;;;;29.10;33.60;;;;;;5093352;28;19930;-65
2021/01/31 13:50:51;;;;;;;;;;;29.20;33.50;;;;;;5093702;28;19930;-57
2021/01/31 13:53:17;;;;;;;;;;;29.20;33.40;;;;;;5092559;28;20342;-63
2021/01/31 13:55:42;;;;;;;;;;;29.30;33.40;;;;;;5093701;28;19934;-67
2021/01/31 13:58:10;;;;;;;;;;;29.40;33.50;;;;;;5075467;28;19908;-60
2021/01/31 14:00:35;;;;;;;;;;;29.30;33.40;;;;;;5093541;28;19927;-66
2021/01/31 14:03:01;;;;;;;;;;;29.40;33.50;;;;;;5092705;28;19912;-63
2021/01/31 14:05:26;;;;;;;;;;;29.40;33.50;;;;;;5079341;28;19909;-64
2021/01/31 14:07:53;;;;;;;;;;;29.40;33.40;;;;;;5073466;28;19919;-62
2021/01/31 14:10:18;;;;;;;;;;;29.40;33.40;;;;;;5072975;28;19909;-66
2021/01/31 14:12:44;;;;;;;;;;;29.40;33.50;;;;;;5074973;28;19913;-61
2021/01/31 14:15:09;;;;;;;;;;;29.40;33.50;;;;;;5073251;28;19909;-64
2021/01/31 14:17:36;;;;;;;;;;;29.40;34.10;;;;;;5073196;28;19916;-64
2021/01/31 14:20:02;;;;;;;;;;;29.40;33.50;;;;;;5072779;28;19924;-63
2021/01/31 14:22:27;;;;;;;;;;;29.50;33.60;;;;;;5072784;28;19954;-56
2021/01/31 14:24:52;;;;;;;;;;;29.50;33.60;;;;;;5073065;28;19908;-56